Terminal Aerodrome Forecast
Issued by NWS

Home | Current Version | Previous Version | Text Only | Print | Product List | Glossary On
Versions: 1 2 3 4 5 6 7 8 9 10 11 12 13 14 15
000
FTUS43 KPAH 251100
TAFCGI
TAF
KCGI 251120Z 2512/2612 25005KT P6SM SKC
      TEMPO 2512/2515 SCT040
     FM251800 35003KT P6SM SKC
     FM260600 00000KT 1SM BR SCT002=

USA.gov is the U.S. government's official web portal to all federal, state and local government web resources and services.